Time;durP1;ratioP1;P1;durP2;ratioP2;P2;SDS_P1;SDS_P2;PMS_P1;PMS_P2;Temp;Humidity;BMP_temperature;BMP_pressure;BME280_temperature;BME280_humidity;BME280_pressure;Samples;Min_cycle;Max_cycle;Signal;HPM_P1;HPM_P2
2022/02/04 00:06:58;;;;;;;18.30;12.93;;;;;;;2.53;100.00;96725.31;5007520;28;20535;-49
2022/02/04 00:09:57;;;;;;;14.13;12.33;;;;;;;2.55;100.00;96726.00;5004751;28;20374;-46
2022/02/04 00:20:51;;;;;;;16.63;12.60;;;;;;;2.43;100.00;96739.25;5001011;28;20568;-52
2022/02/04 00:23:22;;;;;;;12.00;10.87;;;;;;;2.38;100.00;96736.25;5007531;28;20217;-53
2022/02/04 00:26:03;;;;;;;12.30;11.00;;;;;;;2.31;100.00;96738.63;5011574;28;20204;-53
2022/02/04 00:28:45;;;;;;;13.13;11.10;;;;;;;2.31;100.00;96749.06;4967459;28;20205;-48
2022/02/04 00:31:26;;;;;;;13.80;12.40;;;;;;;2.36;100.00;96753.03;4959768;28;20720;-49
2022/02/04 00:33:59;;;;;;;12.63;11.43;;;;;;;2.40;100.00;96752.63;4994179;28;20435;-49
2022/02/04 00:36:34;;;;;;;13.97;11.70;;;;;;;2.44;100.00;96755.75;5007892;28;20231;-54
2022/02/04 00:39:07;;;;;;;13.73;12.17;;;;;;;2.55;100.00;96753.00;4990735;28;20203;-49
2022/02/04 00:41:38;;;;;;;13.93;12.33;;;;;;;2.63;100.00;96754.06;5007480;28;20219;-53
2022/02/04 00:44:10;;;;;;;15.73;11.87;;;;;;;2.53;100.00;96760.16;5033389;28;20226;-49
2022/02/04 00:46:53;;;;;;;12.70;11.47;;;;;;;2.45;100.00;96752.19;4994811;28;20204;-49
2022/02/04 00:49:30;;;;;;;14.37;11.80;;;;;;;2.53;100.00;96756.69;5034438;28;20214;-54
2022/02/04 00:52:04;;;;;;;13.27;11.03;;;;;;;2.49;100.00;96756.19;5032719;28;20198;-49
2022/02/04 00:54:44;;;;;;;14.30;11.90;;;;;;;2.28;100.00;96753.78;5013001;28;20249;-51
2022/02/04 00:57:18;;;;;;;14.20;11.07;;;;;;;2.38;100.00;96772.88;5030476;28;20207;-52
2022/02/04 01:13:41;;;;;;;14.30;11.70;;;;;;;2.53;100.00;96770.63;5027105;28;20201;-52
2022/02/04 01:27:23;;;;;;;14.60;12.07;;;;;;;2.59;100.00;96769.19;4974551;28;20252;-47
2022/02/04 01:30:00;;;;;;;14.50;12.37;;;;;;;2.64;100.00;96769.59;4982563;28;20215;-48
2022/02/04 01:32:28;;;;;;;14.73;11.97;;;;;;;2.62;100.00;96760.25;4938715;28;20213;-50
2022/02/04 01:34:57;;;;;;;17.07;12.13;;;;;;;2.62;100.00;96768.09;4976115;28;20227;-52
2022/02/04 01:37:26;;;;;;;12.90;11.60;;;;;;;2.78;100.00;96757.81;4982642;28;20582;-53
2022/02/04 01:39:54;;;;;;;13.03;10.87;;;;;;;2.87;100.00;96759.59;4985767;28;20220;-49
2022/02/04 01:42:22;;;;;;;15.27;10.83;;;;;;;2.96;100.00;96757.06;4961622;28;20435;-49
2022/02/04 01:44:51;;;;;;;12.67;11.37;;;;;;;3.01;100.00;96760.06;4982841;28;20718;-48
2022/02/04 01:47:19;;;;;;;12.63;10.67;;;;;;;3.01;100.00;96765.28;4935638;28;20614;-48
2022/02/04 01:49:47;;;;;;;11.27;10.17;;;;;;;3.06;100.00;96755.22;4978250;28;20201;-50
2022/02/04 01:52:17;;;;;;;12.17;10.77;;;;;;;3.06;100.00;96752.59;4981167;28;20324;-48
2022/02/04 01:54:44;;;;;;;15.17;13.00;;;;;;;3.03;100.00;96752.88;4985281;28;20234;-52
2022/02/04 01:57:12;;;;;;;11.57;10.37;;;;;;;3.06;100.00;96757.81;4956925;28;20459;-49
2022/02/04 01:59:40;;;;;;;12.77;11.37;;;;;;;3.01;100.00;96749.59;4988027;28;20205;-51
2022/02/04 02:02:09;;;;;;;11.30;10.20;;;;;;;3.06;100.00;96752.59;5008601;28;20203;-50
2022/02/04 02:04:37;;;;;;;11.83;10.37;;;;;;;3.08;100.00;96749.84;4976882;28;20232;-53
2022/02/04 02:07:11;;;;;;;14.37;12.33;;;;;;;3.06;100.00;96749.16;5020440;28;20327;-52
2022/02/04 02:09:50;;;;;;;11.87;10.57;;;;;;;3.00;100.00;96747.94;5026691;28;20200;-47
2022/02/04 02:12:20;;;;;;;14.57;9.70;;;;;;;2.94;100.00;96744.13;5003695;28;20232;-51
2022/02/04 02:14:57;;;;;;;10.63;9.50;;;;;;;3.01;100.00;96746.97;5026289;28;20224;-49
2022/02/04 02:34:33;;;;;;;9.77;7.30;;;;;;;3.59;100.00;96742.28;4983876;28;20789;-50
2022/02/04 02:42:45;;;;;;;7.93;7.13;;;;;;;3.74;100.00;96719.81;5021033;28;20949;-49
2022/02/04 02:45:28;;;;;;;7.60;6.97;;;;;;;3.69;100.00;96731.72;5012255;28;20600;-49
2022/02/04 02:48:13;;;;;;;7.83;7.13;;;;;;;3.62;100.00;96753.28;5028782;28;20229;-49
2022/02/04 02:51:26;;;;;;;6.80;6.20;;;;;;;3.76;100.00;96743.25;5026883;28;20211;-51
2022/02/04 02:54:04;;;;;;;7.37;6.27;;;;;;;3.77;100.00;96744.88;4981114;28;20235;-48
2022/02/04 02:59:44;;;;;;;6.70;6.10;;;;;;;3.68;100.00;96758.91;5056862;27;20947;-50
2022/02/04 03:02:12;;;;;;;5.70;5.30;;;;;;;3.60;100.00;96754.44;5038279;28;20735;-50
2022/02/04 03:04:40;;;;;;;7.33;5.67;;;;;;;3.64;100.00;96754.94;5065432;28;20218;-51
2022/02/04 03:07:08;;;;;;;6.57;5.97;;;;;;;3.51;100.00;96750.91;5055356;28;20522;-49
2022/02/04 03:09:36;;;;;;;6.80;6.10;;;;;;;3.47;100.00;96760.84;5013087;28;20229;-52
2022/02/04 03:12:05;;;;;;;6.03;5.53;;;;;;;3.70;100.00;96755.16;5058509;28;20445;-51
2022/02/04 03:14:35;;;;;;;7.07;6.50;;;;;;;3.46;100.00;96761.81;5055121;28;20442;-50
2022/02/04 03:17:06;;;;;;;6.70;6.07;;;;;;;3.43;100.00;96769.97;5032501;28;20218;-48
2022/02/04 03:19:34;;;;;;;6.63;5.90;;;;;;;3.39;100.00;96773.03;5058705;28;20408;-45
2022/02/04 03:22:07;;;;;;;5.93;5.50;;;;;;;3.53;100.00;96777.78;5057033;28;20205;-52
2022/02/04 03:24:36;;;;;;;6.40;5.80;;;;;;;3.44;100.00;96779.50;5010321;28;23156;-50
2022/02/04 03:27:08;;;;;;;7.63;6.03;;;;;;;3.38;100.00;96781.88;5059453;28;20237;-49
2022/02/04 03:29:55;;;;;;;6.57;6.07;;;;;;;3.32;100.00;96789.34;5060656;28;20605;-51
2022/02/04 03:32:24;;;;;;;6.33;5.83;;;;;;;3.26;100.00;96783.91;5032902;28;20213;-52
2022/02/04 03:34:52;;;;;;;5.47;4.97;;;;;;;3.25;100.00;96784.88;5061812;28;20773;-50
2022/02/04 03:37:20;;;;;;;8.37;6.07;;;;;;;3.21;100.00;96784.34;5057643;28;20202;-51
2022/02/04 03:39:47;;;;;;;6.70;6.00;;;;;;;3.21;100.00;96794.81;5061151;28;20662;-52
2022/02/04 03:42:15;;;;;;;5.70;5.17;;;;;;;3.18;100.00;96792.47;5007409;28;20252;-52
2022/02/04 03:44:45;;;;;;;6.53;5.93;;;;;;;3.21;100.00;96786.94;5060768;28;20229;-54
2022/02/04 03:47:13;;;;;;;6.40;5.90;;;;;;;3.16;100.00;96789.19;5046622;28;20205;-53
2022/02/04 03:49:41;;;;;;;6.73;6.10;;;;;;;3.15;100.00;96788.34;5055229;28;20295;-52
2022/02/04 03:52:09;;;;;;;7.20;6.60;;;;;;;3.12;100.00;96783.41;5055343;28;20210;-51
2022/02/04 03:54:37;;;;;;;7.50;6.80;;;;;;;3.10;100.00;96782.72;5055807;28;20221;-53
2022/02/04 03:57:05;;;;;;;7.10;6.50;;;;;;;3.08;100.00;96779.44;5020500;28;20222;-55
2022/02/04 03:59:33;;;;;;;8.53;6.80;;;;;;;2.99;100.00;96780.31;5057258;28;20215;-54
2022/02/04 04:02:03;;;;;;;8.23;7.33;;;;;;;2.88;100.00;96787.41;5062961;28;20206;-52
2022/02/04 04:04:33;;;;;;;7.73;6.93;;;;;;;3.20;100.00;96790.53;5039200;28;20307;-54
2022/02/04 04:07:02;;;;;;;7.13;6.43;;;;;;;3.05;100.00;96790.22;5057843;28;20210;-54
2022/02/04 04:09:31;;;;;;;8.07;7.27;;;;;;;3.02;100.00;96795.72;5051264;28;20287;-53
2022/02/04 04:12:00;;;;;;;7.47;6.17;;;;;;;2.99;100.00;96785.56;4976590;28;22046;-51
2022/02/04 04:14:28;;;;;;;6.13;5.63;;;;;;;2.98;100.00;96799.63;5043281;28;20226;-56
2022/02/04 04:16:56;;;;;;;7.80;7.03;;;;;;;2.99;100.00;96793.41;5043211;28;20210;-52
2022/02/04 04:19:26;;;;;;;8.03;7.17;;;;;;;3.00;100.00;96790.63;5023575;28;20214;-52
2022/02/04 04:21:54;;;;;;;6.63;6.13;;;;;;;3.00;100.00;96801.09;5037665;28;20207;-55
2022/02/04 04:24:22;;;;;;;7.17;6.63;;;;;;;2.99;100.00;96801.25;5040320;28;20227;-52
2022/02/04 04:26:50;;;;;;;8.27;6.97;;;;;;;2.99;100.00;96809.94;5014089;28;20204;-52
2022/02/04 04:29:18;;;;;;;7.47;6.77;;;;;;;3.01;100.00;96818.44;5033667;28;20298;-49
2022/02/04 04:31:46;;;;;;;7.80;6.97;;;;;;;2.92;100.00;96810.66;5038618;28;20218;-50
2022/02/04 04:34:14;;;;;;;7.80;6.83;;;;;;;2.92;100.00;96813.28;5037785;28;20317;-52
2022/02/04 04:36:43;;;;;;;7.60;6.90;;;;;;;2.89;100.00;96804.75;5040940;28;20210;-51
2022/02/04 04:39:17;;;;;;;5.80;5.30;;;;;;;2.87;100.00;96809.31;5041659;28;20510;-50
2022/02/04 04:41:56;;;;;;;7.03;6.37;;;;;;;2.91;100.00;96816.88;5007062;28;20203;-49
2022/02/04 05:26:44;;;;;;;7.97;7.27;;;;;;;3.09;100.00;96833.44;5037984;28;20210;-53
2022/02/04 05:29:14;;;;;;;7.40;6.70;;;;;;;3.01;100.00;96822.88;5024708;28;20895;-50
2022/02/04 05:31:43;;;;;;;7.63;6.93;;;;;;;3.00;100.00;96834.31;5023972;28;20217;-54
2022/02/04 05:34:11;;;;;;;6.77;6.17;;;;;;;2.98;100.00;96847.53;5025223;28;20227;-55
2022/02/04 05:36:42;;;;;;;7.57;6.83;;;;;;;2.98;100.00;96834.44;5041243;28;20215;-53
2022/02/04 05:39:12;;;;;;;7.23;6.63;;;;;;;2.99;100.00;96836.09;5040630;28;20219;-48
2022/02/04 05:41:47;;;;;;;7.70;6.97;;;;;;;2.97;100.00;96843.28;5041135;28;20199;-50
2022/02/04 05:44:15;;;;;;;6.90;6.20;;;;;;;2.99;100.00;96848.38;5045273;28;20653;-51
2022/02/04 05:46:50;;;;;;;7.77;6.93;;;;;;;2.94;100.00;96851.41;5002287;28;20219;-50
2022/02/04 05:49:21;;;;;;;8.67;7.67;;;;;;;3.04;100.00;96849.59;5043449;28;20548;-49
2022/02/04 05:51:57;;;;;;;7.87;6.87;;;;;;;2.94;100.00;96846.19;5041113;28;20212;-52
2022/02/04 05:54:38;;;;;;;8.63;7.23;;;;;;;2.95;100.00;96849.63;5043017;28;20319;-54
2022/02/04 05:57:14;;;;;;;8.90;7.37;;;;;;;2.97;100.00;96855.56;5039584;28;20204;-51
2022/02/04 06:00:06;;;;;;;10.03;9.03;;;;;;;2.92;100.00;96850.72;5037865;28;20237;-53
2022/02/04 06:02:45;;;;;;;11.50;8.30;;;;;;;2.88;100.00;96852.84;5050892;28;20203;-51
2022/02/04 06:05:20;;;;;;;8.43;7.53;;;;;;;2.86;100.00;96854.78;5033352;28;20223;-55
2022/02/04 06:08:15;;;;;;;8.27;7.50;;;;;;;2.87;100.00;96856.41;5038682;28;20231;-49
2022/02/04 06:11:06;;;;;;;8.70;7.80;;;;;;;2.85;100.00;96865.38;5045879;28;20198;-51
2022/02/04 06:13:52;;;;;;;10.40;8.53;;;;;;;2.88;100.00;96868.53;5036328;28;20226;-52
2022/02/04 06:22:19;;;;;;;9.40;8.40;;;;;;;2.79;100.00;96871.97;5039817;28;20213;-51
2022/02/04 06:24:47;;;;;;;9.97;8.93;;;;;;;2.72;100.00;96870.91;5042189;28;20232;-50
2022/02/04 06:27:17;;;;;;;11.30;10.13;;;;;;;2.72;100.00;96874.38;5041706;28;20654;-53
2022/02/04 06:29:46;;;;;;;9.77;8.77;;;;;;;2.73;100.00;96875.16;5037705;28;20489;-45
2022/02/04 06:32:16;;;;;;;11.33;9.90;;;;;;;2.73;100.00;96877.78;5030006;28;20568;-47
2022/02/04 06:34:44;;;;;;;11.23;10.13;;;;;;;2.74;100.00;96882.06;5026014;28;20947;-52
2022/02/04 06:37:13;;;;;;;12.60;10.13;;;;;;;2.78;100.00;96877.38;5026646;28;20326;-51
2022/02/04 06:39:41;;;;;;;11.37;10.17;;;;;;;2.77;100.00;96888.81;5036098;28;20220;-53
2022/02/04 06:42:09;;;;;;;9.87;8.97;;;;;;;2.74;100.00;96880.28;5035322;28;20207;-50
2022/02/04 06:44:37;;;;;;;10.23;9.33;;;;;;;2.80;100.00;96891.13;5040693;28;20226;-51
2022/02/04 06:47:07;;;;;;;9.10;8.20;;;;;;;2.79;100.00;96890.31;5023621;28;20215;-54
2022/02/04 06:49:35;;;;;;;7.93;7.27;;;;;;;2.73;100.00;96886.47;5043618;28;20200;-51
2022/02/04 06:52:04;;;;;;;7.17;6.47;;;;;;;2.78;100.00;96904.34;4985530;28;20258;-51
2022/02/04 06:54:32;;;;;;;8.97;7.90;;;;;;;2.86;100.00;96904.50;5020595;28;20577;-53
2022/02/04 06:57:00;;;;;;;8.87;8.00;;;;;;;3.00;100.00;96920.69;5034815;28;20203;-52
2022/02/04 06:59:28;;;;;;;7.97;7.27;;;;;;;3.09;100.00;96914.59;5032468;28;20245;-56
2022/02/04 07:01:56;;;;;;;7.40;6.80;;;;;;;2.96;100.00;96914.91;5047264;28;20221;-54
2022/02/04 07:04:30;;;;;;;7.63;7.03;;;;;;;3.09;100.00;96926.88;5038970;28;20433;-51
2022/02/04 07:06:59;;;;;;;7.53;6.83;;;;;;;2.96;100.00;96909.66;4995728;28;20292;-50
2022/02/04 07:09:39;;;;;;;7.83;7.03;;;;;;;3.02;100.00;96922.19;4996204;28;20223;-52
2022/02/04 07:12:26;;;;;;;7.47;6.77;;;;;;;2.95;100.00;96915.88;5018973;28;20404;-50
2022/02/04 07:15:39;;;;;;;7.57;6.87;;;;;;;2.97;100.00;96924.41;5040241;28;20226;-50
2022/02/04 07:20:50;;;;;;;7.67;7.07;;;;;;;2.79;100.00;96913.03;5042836;28;20215;-51
2022/02/04 07:23:18;;;;;;;9.33;7.40;;;;;;;2.91;100.00;96918.94;4980181;28;21273;-53
2022/02/04 07:25:46;;;;;;;11.40;7.37;;;;;;;3.08;100.00;96922.59;5041219;28;20219;-51
2022/02/04 07:28:14;;;;;;;9.53;6.60;;;;;;;3.02;100.00;96921.38;5020779;28;20200;-50
2022/02/04 07:30:43;;;;;;;6.93;6.27;;;;;;;3.12;100.00;96924.78;5041953;28;20207;-48
2022/02/04 07:33:17;;;;;;;7.63;6.83;;;;;;;3.07;100.00;96929.63;5034195;28;20200;-50
2022/02/04 07:38:49;;;;;;;7.10;6.40;;;;;;;3.18;100.00;96933.88;4977820;28;20207;-52
2022/02/04 07:41:18;;;;;;;6.73;6.13;;;;;;;3.18;100.00;96926.00;5040958;28;20439;-52
2022/02/04 07:43:48;;;;;;;10.90;6.30;;;;;;;3.30;100.00;96931.91;5025107;28;20812;-50
2022/02/04 07:46:18;;;;;;;6.43;5.93;;;;;;;3.40;100.00;96935.28;5048865;28;20897;-51
2022/02/04 07:48:46;;;;;;;7.40;6.43;;;;;;;3.43;100.00;96929.75;5041988;28;20207;-53
2022/02/04 07:51:14;;;;;;;8.57;7.30;;;;;;;3.46;100.00;96921.59;5043016;28;20394;-55
2022/02/04 07:53:45;;;;;;;7.73;7.03;;;;;;;3.52;100.00;96928.06;5027733;28;20601;-49
2022/02/04 07:56:18;;;;;;;6.87;6.27;;;;;;;3.50;100.00;96932.63;5004667;28;20547;-50
2022/02/04 07:58:54;;;;;;;6.03;5.43;;;;;;;3.58;100.00;96929.25;5029434;28;20625;-47
2022/02/04 08:01:26;;;;;;;10.10;6.50;;;;;;;3.67;100.00;96923.16;5044309;28;20528;-50
2022/02/04 08:04:00;;;;;;;6.37;5.80;;;;;;;3.76;100.00;96932.75;5048200;28;20222;-49
2022/02/04 08:06:31;;;;;;;6.23;5.27;;;;;;;3.85;100.00;96928.44;5045738;28;20203;-49
2022/02/04 08:09:09;;;;;;;6.10;5.50;;;;;;;3.91;100.00;96913.91;4992803;28;20709;-53
2022/02/04 08:11:55;;;;;;;6.13;5.53;;;;;;;3.92;100.00;96926.03;5043937;28;20198;-56
2022/02/04 08:14:42;;;;;;;5.53;4.87;;;;;;;3.99;100.00;96934.13;5039150;28;20226;-54
2022/02/04 08:17:39;;;;;;;6.17;5.67;;;;;;;4.09;100.00;96927.00;5041030;28;20233;-52
2022/02/04 08:34:13;;;;;;;5.50;5.10;;;;;;;4.31;100.00;96923.13;5041259;28;20223;-52
2022/02/04 08:51:33;;;;;;;6.77;5.93;;;;;;;4.74;100.00;96922.50;4904673;29;20713;-51
2022/02/04 08:56:50;;;;;;;5.57;4.77;;;;;;;4.49;100.00;96924.91;4854968;29;20219;-53
2022/02/04 08:59:28;;;;;;;5.40;4.90;;;;;;;4.54;100.00;96930.53;4869836;29;20613;-51
2022/02/04 09:02:02;;;;;;;5.40;5.00;;;;;;;4.54;100.00;96929.69;4909601;29;20224;-51
2022/02/04 09:04:39;;;;;;;5.20;4.77;;;;;;;4.64;100.00;96933.06;4905872;29;20242;-51
2022/02/04 09:07:10;;;;;;;5.07;4.67;;;;;;;4.61;100.00;96920.25;4909629;29;20603;-50
2022/02/04 09:09:52;;;;;;;4.97;4.57;;;;;;;4.80;100.00;96934.16;4907665;28;20521;-49
2022/02/04 09:21:10;;;;;;;6.87;4.53;;;;;;;5.19;100.00;96923.22;5009741;28;20668;-53
2022/02/04 09:23:37;;;;;;;4.30;3.47;;;;;;;5.47;100.00;96934.34;5018758;28;20223;-45
2022/02/04 09:26:07;;;;;;;4.40;4.03;;;;;;;5.59;100.00;96929.66;5024344;28;20219;-55
2022/02/04 09:28:36;;;;;;;3.80;3.50;;;;;;;5.39;100.00;96925.63;5017906;28;20234;-53
2022/02/04 09:31:06;;;;;;;3.87;3.57;;;;;;;5.48;100.00;96922.88;4975434;28;20212;-54
2022/02/04 09:33:34;;;;;;;4.10;3.80;;;;;;;5.45;100.00;96923.19;5018386;28;20212;-46
2022/02/04 09:36:02;;;;;;;3.10;2.90;;;;;;;5.77;100.00;96926.91;5021335;28;20204;-51
2022/02/04 09:38:30;;;;;;;3.50;3.30;;;;;;;5.76;100.00;96924.47;5012957;28;20393;-50
2022/02/04 09:40:58;;;;;;;3.53;3.23;;;;;;;6.02;100.00;96924.38;5015772;28;20747;-53
2022/02/04 09:43:26;;;;;;;2.50;2.40;;;;;;;5.93;100.00;96920.88;5017052;28;20212;-48
2022/02/04 09:45:54;;;;;;;2.90;2.70;;;;;;;5.96;100.00;96919.75;5017954;28;20214;-55
2022/02/04 09:48:23;;;;;;;4.50;3.53;;;;;;;6.17;100.00;96910.59;4977306;28;20220;-49
2022/02/04 09:50:54;;;;;;;2.60;2.33;;;;;;;6.01;100.00;96909.59;5008075;28;20693;-52
2022/02/04 10:13:18;;;;;;;1.80;1.70;;;;;;;6.66;100.00;96900.09;5039355;28;20256;-54
2022/02/04 10:16:00;;;;;;;3.00;2.60;;;;;;;6.64;100.00;96896.81;5045938;28;20219;-51
2022/02/04 10:18:32;;;;;;;3.20;3.00;;;;;;;6.44;100.00;96898.97;4998505;28;20219;-53
2022/02/04 10:21:06;;;;;;;3.53;3.33;;;;;;;6.75;100.00;96894.81;5037820;28;20231;-56
2022/02/04 10:23:45;;;;;;;2.50;2.40;;;;;;;6.70;100.00;96897.13;5038589;28;20207;-47
2022/02/04 10:26:13;;;;;;;2.70;2.50;;;;;;;6.70;100.00;96894.50;5033419;28;20211;-49
2022/02/04 10:28:42;;;;;;;2.50;2.40;;;;;;;6.69;100.00;96898.13;5045008;28;20413;-53
2022/02/04 10:31:12;;;;;;;2.13;2.03;;;;;;;6.62;100.00;96890.84;5042116;28;20479;-48
2022/02/04 10:33:55;;;;;;;2.53;2.33;;;;;;;6.76;100.00;96893.81;4995777;28;20773;-54
2022/02/04 10:36:36;;;;;;;2.40;2.20;;;;;;;7.14;100.00;96885.31;5037977;28;20544;-52
2022/02/04 10:39:50;;;;;;;2.20;2.10;;;;;;;7.28;100.00;96884.63;5043816;28;20206;-54
2022/02/04 10:42:28;;;;;;;2.10;2.00;;;;;;;7.02;100.00;96879.63;5038184;28;20227;-53
2022/02/04 10:45:11;;;;;;;2.67;2.00;;;;;;;7.21;100.00;96881.03;5041895;28;20230;-50
2022/02/04 10:48:01;;;;;;;2.33;2.23;;;;;;;7.26;100.00;96875.25;5039439;28;20199;-50
2022/02/04 10:59:10;;;;;;;1.30;1.30;;;;;;;7.13;100.00;96860.81;4963432;28;20272;-54
2022/02/04 11:02:00;;;;;;;1.47;1.37;;;;;;;7.17;100.00;96856.84;4960398;28;20921;-49
2022/02/04 11:04:35;;;;;;;1.90;1.80;;;;;;;7.02;100.00;96859.34;4919342;28;20639;-50
2022/02/04 11:07:19;;;;;;;1.70;1.70;;;;;;;6.77;100.00;96848.06;4914456;28;20435;-49
2022/02/04 11:10:04;;;;;;;1.57;1.47;;;;;;;6.56;100.00;96836.25;4957430;28;20998;-50
2022/02/04 11:35:20;;;;;;;1.60;1.60;;;;;;;6.42;100.00;96785.09;5027135;28;20472;-53
2022/02/04 11:43:49;;;;;;;1.20;1.20;;;;;;;8.48;100.00;96770.88;5044307;28;20231;-49
2022/02/04 11:50:11;;;;;;;1.20;1.20;;;;;;;7.68;100.00;96756.25;5044298;28;20407;-49
2022/02/04 11:52:33;;;;;;;1.03;1.03;;;;;;;7.67;100.00;96754.59;5044167;28;20209;-49
2022/02/04 11:55:03;;;;;;;1.37;1.33;;;;;;;7.63;100.00;96745.41;5006782;28;20362;-53
2022/02/04 11:57:31;;;;;;;1.23;1.23;;;;;;;7.61;100.00;96750.03;5041102;28;20206;-51
2022/02/04 12:00:04;;;;;;;1.47;1.40;;;;;;;7.80;100.00;96746.09;5040389;28;20304;-53
2022/02/04 12:02:41;;;;;;;1.00;1.00;;;;;;;7.76;100.00;96749.25;5041811;28;20810;-51
2022/02/04 12:05:29;;;;;;;2.53;0.87;;;;;;;7.73;100.00;96741.69;5042353;28;20251;-51
2022/02/04 12:08:13;;;;;;;1.00;1.00;;;;;;;7.42;100.00;96734.66;4997108;28;20936;-50
2022/02/04 12:10:42;;;;;;;0.80;0.80;;;;;;;7.37;100.00;96730.75;5047653;28;20703;-48
2022/02/04 12:13:11;;;;;;;2.03;1.30;;;;;;;7.11;100.00;96733.69;5045860;28;20196;-56
2022/02/04 12:16:04;;;;;;;1.30;1.30;;;;;;;6.93;100.00;96721.59;5044327;28;20398;-48
2022/02/04 12:19:07;;;;;;;2.10;1.23;;;;;;;6.90;100.00;96729.03;5041412;28;20199;-53
2022/02/04 12:21:46;;;;;;;1.20;1.20;;;;;;;6.95;100.00;96738.03;5046207;28;21134;-50
2022/02/04 12:24:34;;;;;;;0.80;0.80;;;;;;;6.83;100.00;96723.63;5008644;28;20249;-53
2022/02/04 12:27:28;;;;;;;0.73;0.73;;;;;;;6.80;100.00;96729.22;5030251;28;20321;-54
2022/02/04 12:29:57;;;;;;;0.77;0.77;;;;;;;6.77;100.00;96735.66;5035714;28;20416;-51
2022/02/04 12:32:27;;;;;;;0.87;0.87;;;;;;;7.17;100.00;96732.16;5047111;28;20199;-54
2022/02/04 12:34:55;;;;;;;0.80;0.80;;;;;;;7.00;100.00;96742.81;5000050;28;20233;-50
2022/02/04 12:37:24;;;;;;;0.60;0.60;;;;;;;7.09;100.00;96733.06;5036548;28;20336;-54
2022/02/04 12:39:52;;;;;;;2.00;1.07;;;;;;;7.05;100.00;96732.56;5008392;28;20590;-50
2022/02/04 12:42:20;;;;;;;0.83;0.83;;;;;;;6.64;100.00;96730.13;5040694;28;20223;-55
2022/02/04 12:44:48;;;;;;;0.87;0.87;;;;;;;6.68;100.00;96730.59;4986756;28;20323;-49
2022/02/04 12:47:18;;;;;;;0.83;0.83;;;;;;;6.61;100.00;96727.81;4995736;28;20320;-53
2022/02/04 12:49:50;;;;;;;0.87;0.87;;;;;;;6.51;100.00;96733.28;4967006;28;20209;-51
2022/02/04 12:52:24;;;;;;;2.27;0.80;;;;;;;6.32;100.00;96721.31;5002858;28;20401;-51
2022/02/04 12:54:58;;;;;;;1.20;1.20;;;;;;;6.18;100.00;96717.56;4985006;28;20220;-52
2022/02/04 12:57:35;;;;;;;0.80;0.80;;;;;;;6.13;100.00;96723.34;4983308;28;20912;-54
2022/02/04 13:00:18;;;;;;;0.97;0.97;;;;;;;6.15;100.00;96725.78;4996804;28;20762;-50
2022/02/04 13:21:03;;;;;;;0.80;0.80;;;;;;;6.33;100.00;96707.19;4952324;28;20604;-53
2022/02/04 13:23:32;;;;;;;0.80;0.80;;;;;;;6.21;100.00;96710.16;5021703;28;20235;-57
2022/02/04 13:26:04;;;;;;;0.70;0.70;;;;;;;6.07;100.00;96701.16;5009362;28;20210;-49
2022/02/04 13:28:34;;;;;;;0.90;0.90;;;;;;;5.94;100.00;96696.38;5022360;28;20227;-54
2022/02/04 13:31:03;;;;;;;1.53;0.80;;;;;;;6.08;100.00;96696.72;5028594;28;20219;-49
2022/02/04 13:33:33;;;;;;;2.97;2.70;;;;;;;6.27;100.00;96679.75;5021557;28;20254;-50
2022/02/04 13:36:17;;;;;;;1.00;1.00;;;;;;;6.85;100.00;96682.13;4990074;28;20230;-52
2022/02/04 13:38:52;;;;;;;1.00;1.00;;;;;;;6.84;100.00;96680.50;5020971;28;20223;-52
2022/02/04 13:41:32;;;;;;;1.30;1.30;;;;;;;6.74;100.00;96674.63;5007664;28;20444;-54
2022/02/04 13:46:59;;;;;;;1.23;1.00;;;;;;;6.20;100.00;96678.75;4981839;28;20995;-52
2022/02/04 13:49:48;;;;;;;0.80;0.80;;;;;;;6.27;100.00;96679.75;4995265;28;20293;-55
2022/02/04 13:52:22;;;;;;;5.13;4.70;;;;;;;6.18;100.00;96659.69;4998318;28;20325;-52
2022/02/04 13:55:10;;;;;;;4.30;3.03;;;;;;;6.26;100.00;96662.31;4958258;28;20907;-55
2022/02/04 13:57:43;;;;;;;1.10;1.10;;;;;;;6.48;100.00;96660.75;5001112;28;20201;-54
2022/02/04 14:00:25;;;;;;;0.97;0.97;;;;;;;6.27;100.00;96656.06;4991728;28;20231;-53
2022/02/04 14:02:56;;;;;;;1.50;1.20;;;;;;;6.27;100.00;96648.19;4981461;28;20711;-52
2022/02/04 14:05:25;;;;;;;0.93;0.93;;;;;;;6.14;100.00;96650.50;4997813;28;20209;-55
2022/02/04 14:08:04;;;;;;;1.20;1.13;;;;;;;5.90;100.00;96660.06;4976942;28;20205;-55
2022/02/04 14:10:36;;;;;;;0.90;0.90;;;;;;;5.84;100.00;96651.03;4993906;28;20796;-52
2022/02/04 14:13:07;;;;;;;1.10;1.10;;;;;;;5.97;100.00;96644.44;4997845;28;20216;-54
2022/02/04 14:15:37;;;;;;;1.20;1.20;;;;;;;6.22;100.00;96642.56;4989112;28;20707;-53
2022/02/04 14:18:08;;;;;;;1.10;1.10;;;;;;;6.39;100.00;96634.66;4989095;28;20918;-51
2022/02/04 14:20:37;;;;;;;1.10;1.10;;;;;;;6.32;100.00;96627.44;4990953;28;20318;-54
2022/02/04 14:23:08;;;;;;;1.60;1.50;;;;;;;6.22;100.00;96626.78;4947983;28;20615;-53
2022/02/04 14:25:45;;;;;;;1.90;1.27;;;;;;;6.34;100.00;96633.34;4981753;28;20788;-51
2022/02/04 14:28:17;;;;;;;1.53;1.43;;;;;;;6.32;100.00;96627.44;4942128;28;20590;-53
2022/02/04 14:30:45;;;;;;;1.30;1.30;;;;;;;6.06;100.00;96625.88;4989260;28;20233;-53
2022/02/04 14:33:33;;;;;;;1.37;1.27;;;;;;;5.94;100.00;96606.16;4971658;28;20213;-48
2022/02/04 14:36:06;;;;;;;1.37;1.37;;;;;;;6.06;100.00;96617.16;4987108;28;20547;-48
2022/02/04 14:52:30;;;;;;;1.87;1.20;;;;;;;5.69;100.00;96611.47;4984926;28;20846;-51
2022/02/04 15:00:45;;;;;;;1.43;1.43;;;;;;;5.50;100.00;96625.78;4986416;28;20255;-51
2022/02/04 15:03:21;;;;;;;1.47;1.47;;;;;;;5.53;100.00;96616.75;4983538;28;20216;-49
2022/02/04 15:06:01;;;;;;;1.97;1.53;;;;;;;5.55;100.00;96612.16;4989314;28;20582;-54
2022/02/04 15:08:51;;;;;;;1.93;1.83;;;;;;;5.44;100.00;96593.09;4969905;28;20570;-54
2022/02/04 15:11:24;;;;;;;1.27;1.27;;;;;;;5.47;100.00;96610.34;4982314;28;20961;-51
2022/02/04 15:13:52;;;;;;;1.67;1.57;;;;;;;5.44;100.00;96605.44;4941689;28;20789;-50
2022/02/04 15:16:20;;;;;;;1.50;1.50;;;;;;;5.40;100.00;96602.28;4983372;28;20513;-49
2022/02/04 15:18:49;;;;;;;2.30;2.20;;;;;;;5.47;100.00;96599.84;4987526;28;20297;-49
2022/02/04 15:21:19;;;;;;;1.60;1.57;;;;;;;5.44;100.00;96600.97;4983869;28;20518;-54
2022/02/04 15:23:50;;;;;;;1.80;1.80;;;;;;;5.39;100.00;96592.78;4986577;28;20305;-53
2022/02/04 15:26:23;;;;;;;1.37;1.37;;;;;;;5.26;100.00;96590.63;4966150;28;20377;-53
2022/02/04 15:28:57;;;;;;;1.77;1.67;;;;;;;5.15;100.00;96570.81;4985001;28;20209;-49
2022/02/04 15:31:33;;;;;;;1.63;1.43;;;;;;;5.30;100.00;96593.78;4954837;28;20241;-53
2022/02/04 15:34:02;;;;;;;1.63;1.53;;;;;;;5.29;100.00;96576.38;4985234;28;20662;-48
2022/02/04 15:36:39;;;;;;;1.60;1.50;;;;;;;5.28;100.00;96593.94;4984856;28;20692;-48
2022/02/04 15:39:09;;;;;;;2.30;2.10;;;;;;;5.35;100.00;96584.41;4973597;28;20210;-49
2022/02/04 15:41:39;;;;;;;2.30;2.10;;;;;;;5.28;100.00;96588.66;4961375;28;20311;-53
2022/02/04 15:44:15;;;;;;;3.43;1.50;;;;;;;5.16;100.00;96567.19;4952412;28;20209;-52
2022/02/04 15:47:11;;;;;;;1.57;1.47;;;;;;;5.06;100.00;96577.84;4988625;28;20625;-52
2022/02/04 15:50:02;;;;;;;1.43;1.37;;;;;;;4.93;100.00;96573.09;4979324;28;20737;-50
2022/02/04 15:55:47;;;;;;;2.70;2.50;;;;;;;4.97;100.00;96573.59;4961940;28;20320;-52
2022/02/04 15:58:27;;;;;;;2.40;2.20;;;;;;;4.80;100.00;96562.25;4985249;28;20232;-49
2022/02/04 16:01:23;;;;;;;2.33;2.10;;;;;;;4.86;100.00;96563.41;4945517;28;20241;-49
2022/02/04 16:04:04;;;;;;;2.13;2.03;;;;;;;5.01;100.00;96572.28;4994222;28;20209;-48
2022/02/04 16:06:33;;;;;;;3.47;3.17;;;;;;;4.83;100.00;96577.69;4980958;28;20417;-51
2022/02/04 16:09:03;;;;;;;5.40;4.10;;;;;;;4.83;100.00;96567.19;4983584;28;20210;-49
2022/02/04 16:11:51;;;;;;;4.00;3.70;;;;;;;4.69;100.00;96554.69;4966685;28;20249;-52
2022/02/04 16:14:26;;;;;;;4.50;4.10;;;;;;;4.77;100.00;96565.22;4939476;28;20213;-51
2022/02/04 16:16:57;;;;;;;3.63;3.33;;;;;;;4.68;100.00;96568.78;4983031;28;20280;-50
2022/02/04 16:19:32;;;;;;;2.60;2.40;;;;;;;4.57;100.00;96580.44;4980980;28;20323;-54
2022/02/04 16:22:15;;;;;;;3.07;2.60;;;;;;;4.73;100.00;96572.59;4980914;28;20238;-48
2022/02/04 16:30:26;;;;;;;3.47;2.70;;;;;;;4.60;100.00;96572.25;4940688;28;20443;-50
2022/02/04 16:32:54;;;;;;;2.53;2.43;;;;;;;4.62;100.00;96568.47;4985618;28;20791;-52